createdAt,value
2019-03-29T00:02:12.494Z,47.80
2019-03-29T00:04:40.748Z,48.00
2019-03-29T00:07:11.690Z,48.10
2019-03-29T00:09:39.930Z,47.70
2019-03-29T00:12:08.182Z,47.90
2019-03-29T00:14:36.440Z,48.00
2019-03-29T00:17:04.727Z,47.50
2019-03-29T00:19:32.968Z,48.00
2019-03-29T00:22:01.299Z,47.90
2019-03-29T00:24:29.567Z,47.60
2019-03-29T00:26:57.868Z,47.60
2019-03-29T00:29:26.207Z,48.10
2019-03-29T00:31:54.453Z,48.00
2019-03-29T00:34:22.701Z,48.10
2019-03-29T00:36:51.985Z,48.00
2019-03-29T00:39:20.825Z,48.10
2019-03-29T00:41:54.064Z,48.10
2019-03-29T00:44:23.778Z,48.10
2019-03-29T00:47:04.756Z,48.00
2019-03-29T00:49:38.232Z,48.10
2019-03-29T00:52:16.816Z,48.10
2019-03-29T00:54:54.834Z,47.80
2019-03-29T00:57:30.981Z,47.90
2019-03-29T01:00:07.928Z,48.20
2019-03-29T01:02:36.171Z,48.60
2019-03-29T01:05:06.185Z,48.70
2019-03-29T01:07:36.055Z,48.80
2019-03-29T01:10:07.411Z,48.80
2019-03-29T01:12:35.659Z,48.80
2019-03-29T01:15:08.975Z,48.60
2019-03-29T01:17:37.364Z,48.80
2019-03-29T01:20:07.474Z,49.00
2019-03-29T01:22:35.743Z,49.20
2019-03-29T01:25:08.247Z,49.10
2019-03-29T01:27:36.957Z,49.00
2019-03-29T01:30:07.191Z,48.80
2019-03-29T01:32:35.431Z,48.70
2019-03-29T01:35:05.879Z,49.00
2019-03-29T01:37:34.118Z,49.00
2019-03-29T01:40:02.375Z,49.50
2019-03-29T01:42:30.939Z,49.00
2019-03-29T01:44:59.166Z,49.00
2019-03-29T01:47:29.284Z,49.30
2019-03-29T01:49:58.635Z,49.30
2019-03-29T01:52:27.218Z,49.20
2019-03-29T01:54:55.464Z,49.20
2019-03-29T01:57:25.027Z,49.00
2019-03-29T01:59:53.291Z,49.00
2019-03-29T02:02:21.534Z,48.90
2019-03-29T02:04:50.060Z,48.90
2019-03-29T02:07:18.536Z,49.00
2019-03-29T02:09:46.778Z,48.90
2019-03-29T02:12:15.067Z,48.90
2019-03-29T02:14:46.259Z,48.90
2019-03-29T02:17:14.519Z,49.50
2019-03-29T02:19:42.802Z,49.40
2019-03-29T02:22:11.054Z,49.30
2019-03-29T02:24:39.290Z,49.30
2019-03-29T02:27:07.597Z,49.30
2019-03-29T02:29:36.244Z,50.20
2019-03-29T02:32:05.297Z,49.30
2019-03-29T02:34:33.855Z,49.50
2019-03-29T02:37:02.726Z,49.70
2019-03-29T02:39:31.064Z,49.80
2019-03-29T02:41:59.412Z,50.00
2019-03-29T02:44:27.657Z,50.40
2019-03-29T02:46:55.923Z,50.40
2019-03-29T02:49:24.823Z,51.10
2019-03-29T02:51:53.060Z,50.30
2019-03-29T02:54:21.531Z,50.10
2019-03-29T02:56:49.956Z,49.80
2019-03-29T02:59:18.184Z,49.70
2019-03-29T03:01:46.474Z,49.50
2019-03-29T03:04:15.149Z,49.60
2019-03-29T03:06:44.924Z,49.70
2019-03-29T03:09:14.721Z,49.70
2019-03-29T03:11:43.385Z,49.50
2019-03-29T03:14:11.612Z,49.50
2019-03-29T03:16:41.854Z,49.50
2019-03-29T03:19:10.223Z,49.50
2019-03-29T03:21:38.471Z,49.60
2019-03-29T03:24:06.707Z,49.80
2019-03-29T03:26:34.967Z,49.90
2019-03-29T03:29:03.213Z,49.70
2019-03-29T03:31:31.460Z,49.60
2019-03-29T03:34:00.113Z,49.70
2019-03-29T03:36:28.403Z,49.80
2019-03-29T03:38:56.650Z,49.80
2019-03-29T03:41:24.990Z,49.90
2019-03-29T03:43:53.234Z,50.20
2019-03-29T03:46:21.472Z,50.30
2019-03-29T03:48:49.908Z,50.40
2019-03-29T03:51:19.172Z,50.60
2019-03-29T03:53:48.388Z,50.80
2019-03-29T03:56:17.224Z,50.90
2019-03-29T03:58:45.550Z,51.10
2019-03-29T04:01:13.969Z,51.20
2019-03-29T04:03:42.569Z,51.20
2019-03-29T04:06:10.811Z,51.50
2019-03-29T04:08:39.055Z,51.50
2019-03-29T04:11:08.271Z,51.40
2019-03-29T04:13:36.516Z,51.20
2019-03-29T04:16:04.757Z,51.20
2019-03-29T04:18:33.471Z,51.10
2019-03-29T04:21:01.717Z,51.00
2019-03-29T04:23:29.950Z,50.90
2019-03-29T04:25:58.561Z,51.10
2019-03-29T04:28:26.826Z,51.10
2019-03-29T04:30:55.066Z,51.40
2019-03-29T04:33:23.352Z,51.40
2019-03-29T04:35:51.587Z,51.40
2019-03-29T04:38:19.822Z,51.70
2019-03-29T04:40:48.078Z,51.70
2019-03-29T04:43:16.332Z,51.70
2019-03-29T04:45:44.579Z,51.60
2019-03-29T04:48:12.936Z,51.70
2019-03-29T04:50:41.182Z,51.60
2019-03-29T04:53:10.079Z,51.90
2019-03-29T04:55:38.379Z,51.70
2019-03-29T04:58:06.659Z,51.60
2019-03-29T05:00:34.974Z,51.50
2019-03-29T05:03:03.251Z,51.80
2019-03-29T05:05:31.512Z,51.80
2019-03-29T05:07:59.755Z,51.50
2019-03-29T05:10:28.138Z,51.40
2019-03-29T05:12:59.493Z,51.10
2019-03-29T05:15:26.744Z,50.80
2019-03-29T05:17:55.039Z,50.40
2019-03-29T05:20:23.287Z,50.80
2019-03-29T05:22:51.537Z,50.20
2019-03-29T05:25:20.128Z,50.30
2019-03-29T05:27:48.376Z,49.80
2019-03-29T05:30:16.626Z,49.40
2019-03-29T05:32:44.878Z,49.50
2019-03-29T05:35:13.127Z,48.80
2019-03-29T05:37:41.375Z,48.80
2019-03-29T05:40:09.636Z,48.90
2019-03-29T05:42:37.910Z,49.00
2019-03-29T05:45:07.034Z,48.90
2019-03-29T05:47:35.330Z,48.40
2019-03-29T05:50:07.750Z,48.30
2019-03-29T05:52:36.327Z,47.10
2019-03-29T05:55:06.979Z,47.70
2019-03-29T05:57:35.226Z,47.50
2019-03-29T06:00:06.476Z,47.50
2019-03-29T06:02:34.743Z,47.00
2019-03-29T06:05:03.069Z,47.10
2019-03-29T06:07:31.312Z,46.60
2019-03-29T06:09:59.687Z,46.50
2019-03-29T06:12:27.930Z,46.40
2019-03-29T06:14:56.196Z,46.00
2019-03-29T06:17:24.483Z,45.90
2019-03-29T06:19:52.734Z,45.70
2019-03-29T06:22:21.019Z,45.60
2019-03-29T06:24:49.271Z,45.40
2019-03-29T06:27:17.518Z,45.40
2019-03-29T06:29:45.803Z,45.40
2019-03-29T06:32:14.151Z,45.60
2019-03-29T06:34:42.403Z,45.70
2019-03-29T06:37:10.678Z,45.80
2019-03-29T06:39:46.449Z,46.10
2019-03-29T06:42:13.989Z,46.00
2019-03-29T06:44:44.328Z,45.60
2019-03-29T06:47:13.643Z,45.40
2019-03-29T06:49:41.862Z,45.00
2019-03-29T06:52:10.161Z,45.20
2019-03-29T06:54:38.546Z,45.20
2019-03-29T06:57:09.192Z,45.20
2019-03-29T06:59:41.535Z,44.40
2019-03-29T07:02:10.339Z,45.00
2019-03-29T07:04:38.601Z,44.10
2019-03-29T07:07:06.852Z,43.80
2019-03-29T07:09:35.118Z,43.90
2019-03-29T07:12:03.359Z,43.60
2019-03-29T07:14:31.607Z,43.30
2019-03-29T07:16:59.871Z,43.10
2019-03-29T07:19:33.633Z,42.80
2019-03-29T07:22:08.444Z,42.40
2019-03-29T07:24:38.287Z,42.60
2019-03-29T07:27:06.553Z,42.50
2019-03-29T07:29:43.763Z,42.80
2019-03-29T07:32:13.924Z,42.70
2019-03-29T07:34:44.307Z,42.60
2019-03-29T07:37:12.566Z,42.40
2019-03-29T07:39:49.917Z,42.20
2019-03-29T07:42:18.528Z,42.30
2019-03-29T07:44:48.183Z,41.00
2019-03-29T07:47:16.961Z,41.80
2019-03-29T07:49:45.222Z,40.90
2019-03-29T07:52:13.471Z,41.00
2019-03-29T07:54:42.090Z,41.60
2019-03-29T07:57:10.339Z,41.80
2019-03-29T07:59:38.816Z,41.50
2019-03-29T08:02:07.162Z,40.70
2019-03-29T08:04:38.195Z,40.20
2019-03-29T08:07:27.248Z,39.90
2019-03-29T08:09:54.170Z,39.90
2019-03-29T08:12:25.204Z,39.30
2019-03-29T08:15:02.842Z,38.10
2019-03-29T08:17:32.719Z,38.60
2019-03-29T08:20:30.263Z,37.50
2019-03-29T08:22:37.133Z,37.90
2019-03-29T08:25:15.961Z,37.90
2019-03-29T08:27:46.279Z,37.10
2019-03-29T08:30:14.529Z,37.50
2019-03-29T08:32:44.691Z,37.40
2019-03-29T08:35:13.052Z,37.40
2019-03-29T08:37:45.824Z,36.90
2019-03-29T08:40:14.072Z,37.10
2019-03-29T08:42:42.352Z,37.90
2019-03-29T08:45:10.607Z,37.20
2019-03-29T08:47:38.863Z,36.50
2019-03-29T08:50:07.215Z,36.00
2019-03-29T08:52:35.459Z,36.00
2019-03-29T08:55:05.820Z,35.80
2019-03-29T08:57:34.406Z,36.40
2019-03-29T09:00:08.795Z,35.20
2019-03-29T09:02:38.276Z,34.90
2019-03-29T09:05:08.162Z,34.60
2019-03-29T09:07:44.415Z,33.80
2019-03-29T09:10:09.924Z,34.20
2019-03-29T09:12:38.216Z,34.60
2019-03-29T09:15:06.469Z,33.60
2019-03-29T09:17:35.069Z,33.70
2019-03-29T09:20:03.785Z,33.70
2019-03-29T09:22:33.800Z,32.70
2019-03-29T09:25:07.160Z,33.00
2019-03-29T09:27:35.404Z,32.80
2019-03-29T09:30:22.224Z,32.50
2019-03-29T09:32:51.493Z,32.00
2019-03-29T09:35:20.095Z,32.20
2019-03-29T09:37:48.623Z,31.80
2019-03-29T09:40:16.975Z,31.90
2019-03-29T09:42:45.568Z,30.90
2019-03-29T09:45:15.462Z,30.50
2019-03-29T09:47:44.103Z,30.10
2019-03-29T09:50:12.379Z,30.40
2019-03-29T09:52:40.630Z,30.50
2019-03-29T09:55:08.922Z,30.60
2019-03-29T09:57:38.261Z,30.60
2019-03-29T10:00:18.076Z,30.00
2019-03-29T10:02:37.430Z,30.20
2019-03-29T10:05:08.198Z,30.80
2019-03-29T10:07:36.837Z,30.80
2019-03-29T10:10:06.363Z,30.30
2019-03-29T10:12:43.553Z,31.00
2019-03-29T10:15:06.332Z,30.80
2019-03-29T10:17:34.618Z,30.80
2019-03-29T10:20:03.335Z,30.90
2019-03-29T10:22:31.594Z,31.00
2019-03-29T10:25:18.309Z,30.00
2019-03-29T10:27:34.435Z,29.90
2019-03-29T10:30:06.162Z,29.80
2019-03-29T10:32:55.432Z,29.40
2019-03-29T10:35:26.631Z,29.20
2019-03-29T10:37:54.888Z,28.50
2019-03-29T10:40:23.548Z,28.00
2019-03-29T10:42:58.092Z,28.10
2019-03-29T10:45:21.767Z,28.10
2019-03-29T10:47:50.548Z,27.20
2019-03-29T10:50:18.804Z,24.30
2019-03-29T10:52:47.054Z,22.30
2019-03-29T10:55:15.330Z,21.30
2019-03-29T10:57:43.601Z,20.80
2019-03-29T11:00:16.260Z,23.20
2019-03-29T11:02:46.503Z,23.70
2019-03-29T11:05:17.700Z,22.00
2019-03-29T11:07:56.536Z,21.90
2019-03-29T11:10:36.667Z,21.00
2019-03-29T11:13:15.614Z,21.40
2019-03-29T11:15:45.471Z,21.70
2019-03-29T11:18:13.742Z,23.20
2019-03-29T11:20:41.984Z,23.30
2019-03-29T11:23:10.229Z,23.00
2019-03-29T11:25:39.141Z,21.30
2019-03-29T11:28:07.386Z,19.70
2019-03-29T11:30:41.991Z,19.80
2019-03-29T11:33:05.649Z,19.70
2019-03-29T11:35:33.879Z,19.30
2019-03-29T11:38:02.137Z,19.30
2019-03-29T11:40:30.896Z,19.70
2019-03-29T11:42:59.146Z,21.40
2019-03-29T11:45:27.407Z,21.50
2019-03-29T11:48:07.562Z,20.70
2019-03-29T11:50:28.902Z,20.90
2019-03-29T11:52:56.037Z,20.10
2019-03-29T11:55:30.310Z,19.70
2019-03-29T11:57:58.553Z,18.80
2019-03-29T12:00:35.064Z,18.90
2019-03-29T12:03:03.438Z,19.60
2019-03-29T12:05:31.691Z,18.80
2019-03-29T12:07:59.976Z,18.40
2019-03-29T12:10:29.565Z,19.30
2019-03-29T12:12:57.823Z,20.00
2019-03-29T12:15:26.083Z,20.10
2019-03-29T12:17:54.331Z,18.70
2019-03-29T12:20:22.602Z,19.40
2019-03-29T12:22:51.187Z,20.00
2019-03-29T12:25:19.478Z,18.70
2019-03-29T12:27:47.727Z,18.20
2019-03-29T12:30:30.470Z,18.40
2019-03-29T12:32:46.077Z,19.40
2019-03-29T12:35:14.330Z,18.60
2019-03-29T12:37:42.608Z,17.90
2019-03-29T12:40:10.855Z,18.30
2019-03-29T12:42:39.113Z,19.50
2019-03-29T12:45:07.443Z,19.00
2019-03-29T12:47:35.671Z,18.80
2019-03-29T12:50:05.956Z,18.10
2019-03-29T12:52:34.676Z,17.40
2019-03-29T12:55:03.184Z,17.40
2019-03-29T12:57:31.458Z,17.50
2019-03-29T13:00:00.878Z,17.90
2019-03-29T13:02:29.117Z,16.10
2019-03-29T13:04:57.380Z,16.10
2019-03-29T13:07:25.650Z,17.30
2019-03-29T13:09:53.935Z,17.70
2019-03-29T13:12:22.823Z,17.90
2019-03-29T13:14:51.115Z,16.30
2019-03-29T13:17:19.437Z,15.30
2019-03-29T13:19:48.262Z,14.80
2019-03-29T13:22:16.549Z,15.60
2019-03-29T13:24:44.803Z,16.30
2019-03-29T13:27:13.045Z,17.70
2019-03-29T13:29:41.343Z,18.00
2019-03-29T13:32:09.587Z,17.40
2019-03-29T13:34:37.833Z,16.20
2019-03-29T13:37:06.096Z,16.90
2019-03-29T13:39:34.930Z,16.40
2019-03-29T13:42:03.183Z,15.70
2019-03-29T13:44:31.487Z,15.30
2019-03-29T13:46:59.783Z,16.20
2019-03-29T13:49:28.103Z,15.70
2019-03-29T13:51:56.718Z,16.40
2019-03-29T13:54:24.979Z,17.60
2019-03-29T13:56:53.216Z,18.20
2019-03-29T13:59:21.504Z,18.10
2019-03-29T14:01:49.755Z,17.00
2019-03-29T14:04:18.266Z,16.70
2019-03-29T14:06:46.894Z,16.50
2019-03-29T14:09:15.186Z,16.00
2019-03-29T14:11:43.458Z,17.20
2019-03-29T14:14:11.809Z,17.50
2019-03-29T14:16:40.135Z,17.30
2019-03-29T14:19:08.966Z,15.70
2019-03-29T14:21:40.427Z,16.00
2019-03-29T14:24:09.613Z,15.80
2019-03-29T14:26:38.186Z,14.40
2019-03-29T14:29:08.101Z,15.50
2019-03-29T14:31:36.348Z,16.10
2019-03-29T14:34:04.602Z,15.70
2019-03-29T14:36:34.582Z,15.60
2019-03-29T14:39:04.096Z,15.00
2019-03-29T14:41:32.919Z,14.40
2019-03-29T14:44:01.797Z,14.30
2019-03-29T14:46:30.671Z,15.40
2019-03-29T14:48:58.911Z,16.10
2019-03-29T14:51:27.791Z,15.70
2019-03-29T14:53:56.911Z,15.80
2019-03-29T14:56:25.744Z,15.90
2019-03-29T14:58:54.511Z,16.40
2019-03-29T15:01:23.066Z,16.70
2019-03-29T15:03:51.303Z,16.60
2019-03-29T15:06:19.952Z,16.00
2019-03-29T15:08:49.857Z,14.00
2019-03-29T15:11:22.625Z,14.30
2019-03-29T15:13:49.775Z,13.60
2019-03-29T15:16:18.896Z,12.80
2019-03-29T15:18:47.745Z,13.50
2019-03-29T15:21:18.417Z,13.70
2019-03-29T15:23:47.261Z,12.90
2019-03-29T15:26:16.091Z,13.10
2019-03-29T15:28:45.020Z,12.90
2019-03-29T15:31:13.897Z,13.30
2019-03-29T15:33:42.754Z,12.90
2019-03-29T15:36:11.712Z,13.20
2019-03-29T15:38:40.827Z,15.00
2019-03-29T15:41:09.403Z,16.40
2019-03-29T15:43:37.747Z,16.40
2019-03-29T15:46:05.995Z,17.30
2019-03-29T15:48:34.251Z,18.20
2019-03-29T15:51:02.558Z,19.50
2019-03-29T15:53:30.805Z,20.60
2019-03-29T15:56:00.674Z,21.30
2019-03-29T15:58:29.056Z,21.60
2019-03-29T16:00:57.333Z,22.50
2019-03-29T16:03:35.315Z,23.10
2019-03-29T16:06:03.584Z,23.70
2019-03-29T16:08:31.822Z,24.60
2019-03-29T16:11:00.159Z,24.90
2019-03-29T16:13:28.409Z,25.80
2019-03-29T16:15:56.655Z,25.30
2019-03-29T16:18:26.861Z,25.70
2019-03-29T16:20:55.106Z,26.30
2019-03-29T16:23:23.361Z,26.50
2019-03-29T16:25:52.038Z,26.90
2019-03-29T16:28:39.695Z,27.20
2019-03-29T16:31:08.352Z,27.50
2019-03-29T16:33:36.914Z,27.60
2019-03-29T16:36:05.158Z,28.00
2019-03-29T16:38:33.463Z,28.00
2019-03-29T16:41:02.039Z,28.00
2019-03-29T16:43:30.271Z,28.10
2019-03-29T16:45:58.635Z,28.60
2019-03-29T16:48:26.875Z,28.30
2019-03-29T16:50:55.126Z,28.60
2019-03-29T16:53:23.432Z,28.60
2019-03-29T16:55:51.679Z,28.50
2019-03-29T16:58:20.016Z,28.50
2019-03-29T17:00:49.296Z,28.90
2019-03-29T17:03:17.544Z,29.10
2019-03-29T17:05:45.803Z,29.30
2019-03-29T17:08:14.707Z,29.40
2019-03-29T17:10:42.951Z,29.50
2019-03-29T17:13:11.482Z,29.80
2019-03-29T17:15:39.835Z,30.00
2019-03-29T17:18:08.171Z,30.00
2019-03-29T17:20:36.960Z,30.30
2019-03-29T17:23:05.345Z,30.60
2019-03-29T17:25:34.859Z,30.50
2019-03-29T17:28:08.475Z,30.70
2019-03-29T17:30:41.098Z,31.10
2019-03-29T17:33:09.379Z,31.00
2019-03-29T17:35:37.977Z,31.30
2019-03-29T17:38:06.590Z,31.60
2019-03-29T17:40:34.890Z,32.10
2019-03-29T17:43:03.174Z,32.30
2019-03-29T17:45:32.003Z,33.30
2019-03-29T17:48:00.267Z,32.90
2019-03-29T17:50:28.821Z,32.70
2019-03-29T17:52:57.083Z,32.80
2019-03-29T17:55:31.727Z,33.00
2019-03-29T17:57:59.994Z,33.40
2019-03-29T18:00:29.370Z,33.50
2019-03-29T18:02:57.643Z,33.50
2019-03-29T18:05:25.900Z,33.60
2019-03-29T18:07:54.169Z,33.80
2019-03-29T18:10:22.431Z,34.00
2019-03-29T18:12:53.469Z,34.30
2019-03-29T18:15:33.745Z,34.40
2019-03-29T18:18:08.259Z,34.80
2019-03-29T18:20:45.027Z,34.70
2019-03-29T18:23:13.366Z,34.70
2019-03-29T18:25:41.632Z,34.90
2019-03-29T18:28:09.890Z,35.20
2019-03-29T18:30:39.618Z,35.40
2019-03-29T18:33:07.874Z,35.60
2019-03-29T18:35:36.284Z,35.70
2019-03-29T18:38:04.554Z,35.90
2019-03-29T18:40:32.848Z,36.20
2019-03-29T18:43:01.162Z,36.20
2019-03-29T18:45:30.312Z,36.50
2019-03-29T18:47:58.926Z,36.30
2019-03-29T18:50:27.509Z,36.60
2019-03-29T18:52:55.771Z,36.90
2019-03-29T18:55:24.315Z,36.90
2019-03-29T18:57:52.708Z,37.30
2019-03-29T19:00:24.498Z,37.60
2019-03-29T19:02:52.738Z,37.70
2019-03-29T19:05:25.263Z,38.00
2019-03-29T19:07:53.926Z,38.60
2019-03-29T19:10:22.175Z,38.90
2019-03-29T19:12:50.453Z,39.00
2019-03-29T19:15:19.997Z,38.80
2019-03-29T19:17:48.269Z,39.10
2019-03-29T19:20:27.505Z,39.10
2019-03-29T19:22:47.250Z,39.00
2019-03-29T19:25:16.750Z,39.00
2019-03-29T19:27:45.102Z,39.30
2019-03-29T19:30:13.355Z,40.10
2019-03-29T19:32:41.613Z,39.50
2019-03-29T19:35:10.397Z,39.70
2019-03-29T19:37:38.642Z,40.00
2019-03-29T19:40:06.967Z,40.20
2019-03-29T19:42:35.258Z,40.20
2019-03-29T19:45:04.145Z,40.30
2019-03-29T19:47:32.401Z,40.50
2019-03-29T19:50:02.382Z,40.70
2019-03-29T19:52:30.647Z,40.90
2019-03-29T19:55:01.289Z,41.10
2019-03-29T19:57:29.030Z,41.30
2019-03-29T19:59:57.303Z,41.70
2019-03-29T20:02:25.604Z,41.80
2019-03-29T20:04:53.871Z,41.90
2019-03-29T20:07:24.392Z,42.00
2019-03-29T20:09:53.972Z,42.10
2019-03-29T20:12:24.989Z,42.30
2019-03-29T20:14:52.277Z,42.50
2019-03-29T20:17:27.396Z,42.70
2019-03-29T20:19:51.155Z,42.80
2019-03-29T20:22:19.438Z,43.10
2019-03-29T20:24:47.730Z,43.30
2019-03-29T20:27:17.318Z,43.40
2019-03-29T20:29:45.601Z,43.40
2019-03-29T20:32:13.843Z,43.30
2019-03-29T20:34:42.458Z,43.70
2019-03-29T20:37:10.706Z,43.80
2019-03-29T20:39:38.999Z,43.90
2019-03-29T20:42:07.424Z,44.20
2019-03-29T20:44:35.736Z,44.30
2019-03-29T20:47:03.986Z,44.60
2019-03-29T20:49:33.473Z,45.00
2019-03-29T20:52:04.695Z,44.80
2019-03-29T20:54:31.916Z,45.00
2019-03-29T20:57:00.209Z,45.00
2019-03-29T20:59:28.507Z,45.40
2019-03-29T21:01:56.744Z,45.50
2019-03-29T21:04:26.691Z,45.40
2019-03-29T21:06:54.928Z,45.60
2019-03-29T21:09:30.646Z,45.80
2019-03-29T21:12:00.910Z,45.90
2019-03-29T21:14:42.153Z,46.00
2019-03-29T21:17:07.556Z,46.20
2019-03-29T21:19:44.616Z,46.40
2019-03-29T21:22:15.611Z,46.40
2019-03-29T21:24:47.119Z,46.60
2019-03-29T21:27:18.818Z,47.20
2019-03-29T21:30:03.572Z,46.80
2019-03-29T21:32:40.653Z,47.00
2019-03-29T21:35:17.589Z,46.90
2019-03-29T21:37:46.085Z,47.10
2019-03-29T21:40:14.322Z,47.10
2019-03-29T21:42:54.498Z,46.90
2019-03-29T21:45:35.449Z,46.80
2019-03-29T21:48:27.472Z,47.00
2019-03-29T21:50:38.002Z,47.00
2019-03-29T21:53:06.262Z,47.10
2019-03-29T21:55:34.923Z,47.30
2019-03-29T21:58:05.979Z,47.30
2019-03-29T22:00:34.262Z,47.30
2019-03-29T22:03:05.114Z,47.20
2019-03-29T22:05:33.368Z,47.40
2019-03-29T22:08:01.618Z,47.40
2019-03-29T22:10:35.982Z,47.70
2019-03-29T22:13:11.619Z,47.80
2019-03-29T22:15:39.879Z,47.90
2019-03-29T22:18:08.191Z,48.00
2019-03-29T22:20:39.112Z,48.20
2019-03-29T22:23:07.349Z,48.10
2019-03-29T22:25:38.665Z,48.10
2019-03-29T22:28:06.931Z,48.20
2019-03-29T22:30:36.812Z,48.80
2019-03-29T22:33:05.145Z,48.50
2019-03-29T22:35:33.392Z,48.50
2019-03-29T22:38:01.921Z,50.00
2019-03-29T22:40:30.160Z,50.10
2019-03-29T22:42:58.408Z,50.10
2019-03-29T22:45:26.652Z,50.10
2019-03-29T22:47:55.019Z,50.20
2019-03-29T22:50:23.257Z,50.20
2019-03-29T22:52:54.415Z,50.40
2019-03-29T22:55:21.533Z,50.40
2019-03-29T22:57:49.834Z,50.50
2019-03-29T23:00:28.358Z,50.60
2019-03-29T23:02:58.238Z,50.60
2019-03-29T23:05:26.517Z,50.50
2019-03-29T23:07:54.796Z,51.00
2019-03-29T23:10:23.372Z,51.00
2019-03-29T23:12:51.600Z,51.00
2019-03-29T23:15:19.873Z,51.20
2019-03-29T23:17:48.122Z,51.40
2019-03-29T23:20:16.394Z,51.40
2019-03-29T23:22:44.796Z,51.50
2019-03-29T23:25:13.044Z,51.70
2019-03-29T23:27:41.290Z,51.50
2019-03-29T23:30:09.552Z,51.60
2019-03-29T23:32:39.616Z,51.60
2019-03-29T23:35:08.336Z,51.80
2019-03-29T23:37:39.573Z,51.60
2019-03-29T23:40:07.818Z,51.80
2019-03-29T23:42:36.358Z,52.10
2019-03-29T23:45:07.739Z,52.20
2019-03-29T23:47:36.016Z,52.20
2019-03-29T23:50:23.038Z,52.00
2019-03-29T23:52:51.332Z,51.70
2019-03-29T23:55:19.600Z,51.80
2019-03-29T23:57:47.894Z,52.10
